createdAt,value
2023-01-25T00:00:58.423Z,8.35
2023-01-25T00:03:25.124Z,7.43
2023-01-25T00:06:00.431Z,7.28
2023-01-25T00:08:27.399Z,8.85
2023-01-25T00:10:54.072Z,7.88
2023-01-25T00:13:20.733Z,7.70
2023-01-25T00:15:47.416Z,7.65
2023-01-25T00:18:16.493Z,8.68
2023-01-25T00:20:43.145Z,8.40
2023-01-25T00:23:09.816Z,8.00
2023-01-25T00:25:36.669Z,8.77
2023-01-25T00:28:08.057Z,8.73
2023-01-25T00:30:37.070Z,7.97
2023-01-25T00:33:34.762Z,8.23
2023-01-25T00:36:04.055Z,7.65
2023-01-25T00:38:38.266Z,7.73
2023-01-25T00:41:07.403Z,8.23
2023-01-25T00:43:34.039Z,7.82
2023-01-25T00:46:01.785Z,8.05
2023-01-25T00:48:28.557Z,8.63
2023-01-25T00:50:55.255Z,8.25
2023-01-25T00:53:24.483Z,7.55
2023-01-25T00:55:54.235Z,7.93
2023-01-25T00:58:20.917Z,8.52
2023-01-25T01:00:47.604Z,9.73
2023-01-25T01:03:18.832Z,8.27
2023-01-25T01:05:45.647Z,8.60
2023-01-25T01:08:14.079Z,8.30
2023-01-25T01:10:43.560Z,7.78
2023-01-25T01:13:10.201Z,8.75
2023-01-25T01:15:37.284Z,8.00
2023-01-25T01:18:06.416Z,7.60
2023-01-25T01:20:35.634Z,7.90
2023-01-25T01:23:02.324Z,7.13
2023-01-25T01:25:29.063Z,8.27
2023-01-25T01:28:00.406Z,8.38
2023-01-25T01:30:27.080Z,7.72
2023-01-25T01:32:53.881Z,7.57
2023-01-25T01:35:20.635Z,8.00
2023-01-25T01:37:47.279Z,8.23
2023-01-25T01:40:17.426Z,8.07
2023-01-25T01:45:57.104Z,8.02
2023-01-25T01:48:57.939Z,8.70
2023-01-25T01:51:46.257Z,8.27
2023-01-25T01:54:31.877Z,8.45
2023-01-25T01:57:05.452Z,8.02
2023-01-25T01:59:46.666Z,7.93
2023-01-25T02:02:14.997Z,8.60
2023-01-25T02:04:44.911Z,8.13
2023-01-25T02:07:18.290Z,8.63
2023-01-25T02:09:48.291Z,8.23
2023-01-25T02:12:15.688Z,7.63
2023-01-25T02:14:49.521Z,8.02
2023-01-25T02:17:29.211Z,9.13
2023-01-25T02:20:10.597Z,8.05
2023-01-25T02:22:47.150Z,8.00
2023-01-25T02:25:16.483Z,8.40
2023-01-25T02:27:50.101Z,8.20
2023-01-25T02:30:17.130Z,7.70
2023-01-25T02:32:43.795Z,7.95
2023-01-25T02:35:25.634Z,8.15
2023-01-25T02:37:52.389Z,7.97
2023-01-25T02:40:19.507Z,7.60
2023-01-25T02:42:48.820Z,6.95
2023-01-25T02:45:19.530Z,7.93
2023-01-25T02:47:46.234Z,7.97
2023-01-25T02:50:15.123Z,7.70
2023-01-25T02:52:42.598Z,8.10
2023-01-25T02:55:11.736Z,8.63
2023-01-25T02:57:40.903Z,7.90
2023-01-25T03:00:08.413Z,7.63
2023-01-25T03:02:37.407Z,8.45
2023-01-25T03:05:04.405Z,7.20
2023-01-25T03:07:31.080Z,8.05
2023-01-25T03:10:00.264Z,8.95
2023-01-25T03:12:29.408Z,8.70
2023-01-25T03:14:56.137Z,9.20
2023-01-25T03:17:25.014Z,8.25
2023-01-25T03:19:53.896Z,9.35
2023-01-25T03:22:20.729Z,7.90
2023-01-25T03:24:47.554Z,7.93
2023-01-25T03:27:18.857Z,7.95
2023-01-25T03:29:48.028Z,7.43
2023-01-25T03:32:15.048Z,8.07
2023-01-25T03:34:41.722Z,8.50
2023-01-25T03:37:08.422Z,7.90
2023-01-25T03:39:35.185Z,8.85
2023-01-25T03:42:01.899Z,7.85
2023-01-25T03:44:31.078Z,8.05
2023-01-25T03:46:57.853Z,8.52
2023-01-25T03:49:27.917Z,8.27
2023-01-25T03:51:54.614Z,8.30
2023-01-25T03:54:23.726Z,8.55
2023-01-25T03:56:50.370Z,8.25
2023-01-25T03:59:17.076Z,9.05
2023-01-25T04:01:43.799Z,7.35
2023-01-25T04:04:10.515Z,8.00
2023-01-25T04:06:42.311Z,8.05
2023-01-25T04:09:09.218Z,8.25
2023-01-25T04:11:38.059Z,8.57
2023-01-25T04:14:04.705Z,7.57
2023-01-25T04:16:31.535Z,7.78
2023-01-25T04:19:00.827Z,7.47
2023-01-25T04:21:27.530Z,8.07
2023-01-25T04:23:54.313Z,7.90
2023-01-25T04:26:21.016Z,7.22
2023-01-25T04:28:50.265Z,7.30
2023-01-25T04:31:17.213Z,7.70
2023-01-25T04:33:46.133Z,7.30
2023-01-25T04:36:12.790Z,7.35
2023-01-25T04:38:39.433Z,7.75
2023-01-25T04:41:08.356Z,8.85
2023-01-25T04:43:35.125Z,7.35
2023-01-25T04:46:02.859Z,8.15
2023-01-25T04:48:29.878Z,8.00
2023-01-25T04:50:56.624Z,7.43
2023-01-25T04:53:23.343Z,7.32
2023-01-25T04:55:50.088Z,7.15
2023-01-25T04:58:19.893Z,7.10
2023-01-25T05:00:46.593Z,7.43
2023-01-25T05:03:13.328Z,7.90
2023-01-25T05:05:43.189Z,8.43
2023-01-25T05:08:09.867Z,7.85
2023-01-25T05:10:36.603Z,7.28
2023-01-25T05:13:03.304Z,8.02
2023-01-25T05:15:29.939Z,7.72
2023-01-25T05:17:56.622Z,7.55
2023-01-25T05:20:23.309Z,8.32
2023-01-25T05:22:50.061Z,7.82
2023-01-25T05:25:35.360Z,7.32
2023-01-25T05:28:07.698Z,7.60
2023-01-25T05:30:34.522Z,7.43
2023-01-25T05:33:01.522Z,7.57
2023-01-25T05:35:28.260Z,7.50
2023-01-25T05:37:58.852Z,7.57
2023-01-25T05:40:28.594Z,8.32
2023-01-25T05:43:02.217Z,7.75
2023-01-25T05:45:30.121Z,8.35
2023-01-25T05:48:00.104Z,8.48
2023-01-25T05:50:27.384Z,8.27
2023-01-25T05:52:54.068Z,8.00
2023-01-25T05:55:20.812Z,8.07
2023-01-25T05:57:47.519Z,7.32
2023-01-25T06:00:16.967Z,7.22
2023-01-25T06:02:43.738Z,8.23
2023-01-25T06:05:10.955Z,8.13
2023-01-25T06:07:40.830Z,8.05
2023-01-25T06:10:15.365Z,8.55
2023-01-25T06:12:44.163Z,8.32
2023-01-25T06:15:13.292Z,8.38
2023-01-25T06:17:39.958Z,8.65
2023-01-25T06:20:07.071Z,8.52
2023-01-25T06:22:36.542Z,7.95
2023-01-25T06:25:05.817Z,7.95
2023-01-25T06:27:32.479Z,8.30
2023-01-25T06:30:01.375Z,7.97
2023-01-25T06:32:32.519Z,7.78
2023-01-25T06:34:59.263Z,7.78
2023-01-25T06:37:26.127Z,9.70
2023-01-25T06:39:57.251Z,9.07
2023-01-25T06:42:29.236Z,8.60
2023-01-25T06:44:55.891Z,9.13
2023-01-25T06:47:22.564Z,8.95
2023-01-25T06:49:49.230Z,8.88
2023-01-25T06:52:18.290Z,8.88
2023-01-25T06:54:44.973Z,8.10
2023-01-25T06:57:14.449Z,8.35
2023-01-25T06:59:41.212Z,7.68
2023-01-25T07:02:15.227Z,7.75
2023-01-25T07:04:45.015Z,7.22
2023-01-25T07:07:11.663Z,7.95
2023-01-25T07:09:38.366Z,7.85
2023-01-25T07:12:05.516Z,8.15
2023-01-25T07:14:32.491Z,7.85
2023-01-25T07:17:03.052Z,8.25
2023-01-25T07:19:30.700Z,8.60
2023-01-25T07:21:57.488Z,8.85
2023-01-25T07:24:29.759Z,8.82
2023-01-25T07:26:56.542Z,9.50
2023-01-25T07:29:23.460Z,9.05
2023-01-25T07:31:50.410Z,8.30
2023-01-25T07:34:17.142Z,8.35
2023-01-25T07:36:47.021Z,9.73
2023-01-25T07:39:14.199Z,8.20
2023-01-25T07:41:40.949Z,8.57
2023-01-25T07:44:07.644Z,9.57
2023-01-25T07:46:36.857Z,9.52
2023-01-25T07:49:06.716Z,8.02
2023-01-25T07:51:33.483Z,8.75
2023-01-25T07:54:03.204Z,8.85
2023-01-25T07:56:37.683Z,9.45
2023-01-25T07:59:08.327Z,8.98
2023-01-25T08:01:36.750Z,8.15
2023-01-25T08:04:04.816Z,8.57
2023-01-25T08:06:38.875Z,8.98
2023-01-25T08:09:14.736Z,9.48
2023-01-25T08:11:42.248Z,8.52
2023-01-25T08:14:11.429Z,9.20
2023-01-25T08:16:38.258Z,8.70
2023-01-25T08:19:05.186Z,9.13
2023-01-25T08:21:34.010Z,8.43
2023-01-25T08:24:04.032Z,8.82
2023-01-25T08:26:31.112Z,8.88
2023-01-25T08:28:58.355Z,9.02
2023-01-25T08:31:28.443Z,7.97
2023-01-25T08:33:56.002Z,8.85
2023-01-25T08:36:27.811Z,8.98
2023-01-25T08:38:57.142Z,8.48
2023-01-25T08:41:29.375Z,8.18
2023-01-25T08:43:57.277Z,7.95
2023-01-25T08:46:30.338Z,8.30
2023-01-25T08:48:58.957Z,9.75
2023-01-25T08:51:28.695Z,8.77
2023-01-25T08:53:55.414Z,8.80
2023-01-25T08:56:22.362Z,8.95
2023-01-25T08:58:55.064Z,8.94
2023-01-25T09:01:21.846Z,9.60
2023-01-25T09:03:54.024Z,9.00
2023-01-25T09:06:30.162Z,8.60
2023-01-25T09:08:58.413Z,9.35
2023-01-25T09:11:25.082Z,8.75
2023-01-25T09:13:51.847Z,9.10
2023-01-25T09:16:28.256Z,8.98
2023-01-25T09:19:00.211Z,9.52
2023-01-25T09:21:29.603Z,9.60
2023-01-25T09:24:06.012Z,9.15
2023-01-25T09:26:36.809Z,8.98
2023-01-25T09:29:04.234Z,9.25
2023-01-25T09:31:31.079Z,8.98
2023-01-25T09:33:59.099Z,8.95
2023-01-25T09:36:26.486Z,9.70
2023-01-25T09:38:55.653Z,10.35
2023-01-25T09:41:35.725Z,9.00
2023-01-25T09:44:14.850Z,8.95
2023-01-25T09:46:52.516Z,9.38
2023-01-25T09:49:24.694Z,9.95
2023-01-25T09:52:22.176Z,9.77
2023-01-25T09:54:48.936Z,10.43
2023-01-25T09:57:33.406Z,9.85
2023-01-25T10:00:08.403Z,9.38
2023-01-25T10:03:14.749Z,11.30
2023-01-25T10:05:45.335Z,10.38
2023-01-25T10:08:38.956Z,11.40
2023-01-25T10:11:31.523Z,10.60
2023-01-25T10:14:01.791Z,11.35
2023-01-25T10:16:39.205Z,10.73
2023-01-25T10:19:34.793Z,11.13
2023-01-25T10:22:11.480Z,10.13
2023-01-25T10:25:12.104Z,9.88
2023-01-25T10:27:50.028Z,10.75
2023-01-25T10:30:26.124Z,9.98
2023-01-25T10:32:59.615Z,9.07
2023-01-25T10:35:36.359Z,9.63
2023-01-25T10:38:10.976Z,11.27
2023-01-25T10:40:45.796Z,10.63
2023-01-25T10:43:22.868Z,10.23
2023-01-25T10:45:50.879Z,10.95
2023-01-25T10:48:24.632Z,10.48
2023-01-25T10:50:53.835Z,10.52
2023-01-25T10:53:22.461Z,10.63
2023-01-25T10:56:10.361Z,10.27
2023-01-25T10:58:42.365Z,10.32
2023-01-25T11:01:15.424Z,11.02
2023-01-25T11:03:46.403Z,11.63
2023-01-25T11:06:34.305Z,10.34
2023-01-25T11:09:02.649Z,10.20
2023-01-25T11:11:41.498Z,9.60
2023-01-25T11:14:18.062Z,11.93
2023-01-25T11:16:48.468Z,11.10
2023-01-25T11:19:36.453Z,10.55
2023-01-25T11:22:19.672Z,11.57
2023-01-25T11:24:47.097Z,11.10
2023-01-25T11:27:17.874Z,9.52
2023-01-25T11:29:47.099Z,11.60
2023-01-25T11:32:21.533Z,11.07
2023-01-25T11:34:50.239Z,11.70
2023-01-25T11:37:35.432Z,9.93
2023-01-25T11:40:30.084Z,10.95
2023-01-25T11:43:23.800Z,10.70
2023-01-25T11:46:10.010Z,11.48
2023-01-25T11:49:10.858Z,13.52
2023-01-25T11:52:06.227Z,11.25
2023-01-25T11:54:45.404Z,11.73
2023-01-25T11:57:17.952Z,10.98
2023-01-25T11:59:56.504Z,11.40
2023-01-25T12:02:48.330Z,10.90
2023-01-25T12:05:43.084Z,11.05
2023-01-25T12:08:53.442Z,12.70
2023-01-25T12:11:55.981Z,12.65
2023-01-25T12:14:48.119Z,11.73
2023-01-25T12:17:45.483Z,12.63
2023-01-25T12:20:33.428Z,14.05
2023-01-25T12:23:23.466Z,13.85
2023-01-25T12:26:20.913Z,12.80
2023-01-25T12:28:59.699Z,12.85
2023-01-25T12:31:50.758Z,11.80
2023-01-25T12:34:42.136Z,11.73
2023-01-25T12:37:19.082Z,12.35
2023-01-25T12:39:57.160Z,12.70
2023-01-25T12:42:31.535Z,13.00
2023-01-25T12:45:22.297Z,11.45
2023-01-25T12:48:00.431Z,11.73
2023-01-25T12:50:38.237Z,12.07
2023-01-25T12:53:13.585Z,12.15
2023-01-25T12:55:40.778Z,12.38
2023-01-25T12:58:26.423Z,12.00
2023-01-25T13:01:16.943Z,12.35
2023-01-25T13:04:01.125Z,13.15
2023-01-25T13:06:42.206Z,11.63
2023-01-25T13:09:26.787Z,12.20
2023-01-25T13:11:53.631Z,14.18
2023-01-25T13:14:29.991Z,12.10
2023-01-25T13:17:24.495Z,13.93
2023-01-25T13:19:54.419Z,14.45
2023-01-25T13:22:43.027Z,15.02
2023-01-25T13:25:18.564Z,13.25
2023-01-25T13:27:45.290Z,13.65
2023-01-25T13:30:32.927Z,14.60
2023-01-25T13:33:07.238Z,13.80
2023-01-25T13:35:35.659Z,13.57
2023-01-25T13:38:29.649Z,12.98
2023-01-25T13:41:11.847Z,12.52
2023-01-25T13:43:44.030Z,12.23
2023-01-25T13:46:14.777Z,12.90
2023-01-25T13:48:57.174Z,13.40
2023-01-25T13:51:30.633Z,14.30
2023-01-25T13:54:00.643Z,16.98
2023-01-25T13:56:30.767Z,14.05
2023-01-25T14:01:25.337Z,14.95
2023-01-25T14:04:01.943Z,14.35
2023-01-25T14:06:41.154Z,14.43
2023-01-25T14:09:20.757Z,13.57
2023-01-25T14:11:56.532Z,13.50
2023-01-25T14:14:27.526Z,13.65
2023-01-25T14:17:29.680Z,14.35
2023-01-25T14:19:59.255Z,14.15
2023-01-25T14:22:30.627Z,13.95
2023-01-25T14:25:18.216Z,13.55
2023-01-25T14:28:06.734Z,13.18
2023-01-25T14:30:37.605Z,13.20
2023-01-25T14:33:22.002Z,13.65
2023-01-25T14:35:55.423Z,12.65
2023-01-25T14:38:30.700Z,12.20
2023-01-25T14:41:17.607Z,12.52
2023-01-25T14:43:50.089Z,12.57
2023-01-25T14:46:30.408Z,13.00
2023-01-25T14:49:07.100Z,12.05
2023-01-25T14:51:36.768Z,12.70
2023-01-25T14:54:18.890Z,15.40
2023-01-25T14:56:48.841Z,13.85
2023-01-25T14:59:27.570Z,12.82
2023-01-25T15:02:00.967Z,12.82
2023-01-25T15:04:27.852Z,13.48
2023-01-25T15:06:58.869Z,13.50
2023-01-25T15:10:14.764Z,14.15
2023-01-25T15:12:41.466Z,13.90
2023-01-25T15:15:19.600Z,13.98
2023-01-25T15:17:49.930Z,13.32
2023-01-25T15:20:41.832Z,13.05
2023-01-25T15:23:24.953Z,13.48
2023-01-25T15:25:59.718Z,11.73
2023-01-25T15:28:34.293Z,12.63
2023-01-25T15:31:01.352Z,11.82
2023-01-25T15:33:29.590Z,11.77
2023-01-25T15:35:56.815Z,12.30
2023-01-25T15:38:26.120Z,12.38
2023-01-25T15:41:00.417Z,13.07
2023-01-25T15:43:29.393Z,13.55
2023-01-25T15:45:57.586Z,13.63
2023-01-25T15:48:31.347Z,13.50
2023-01-25T15:50:58.141Z,13.82
2023-01-25T15:53:25.456Z,12.80
2023-01-25T15:55:59.931Z,14.35
2023-01-25T15:58:29.819Z,13.77
2023-01-25T16:00:56.732Z,14.48
2023-01-25T16:03:23.454Z,14.40
2023-01-25T16:06:02.022Z,14.75
2023-01-25T16:08:36.887Z,12.95
2023-01-25T16:11:03.643Z,12.73
2023-01-25T16:13:30.340Z,14.02
2023-01-25T16:15:57.344Z,14.50
2023-01-25T16:18:26.471Z,13.00
2023-01-25T16:20:55.756Z,12.98
2023-01-25T16:23:22.423Z,12.60
2023-01-25T16:25:49.457Z,13.93
2023-01-25T16:28:23.464Z,14.02
2023-01-25T16:30:50.265Z,13.45
2023-01-25T16:33:17.046Z,14.23
2023-01-25T16:35:43.714Z,13.52
2023-01-25T16:38:11.941Z,13.48
2023-01-25T16:40:39.690Z,13.43
2023-01-25T16:43:06.531Z,12.43
2023-01-25T16:45:35.402Z,12.55
2023-01-25T16:48:04.801Z,13.40
2023-01-25T16:50:33.961Z,14.40
2023-01-25T16:53:00.907Z,14.43
2023-01-25T16:55:32.492Z,14.68
2023-01-25T16:57:59.199Z,13.18
2023-01-25T17:00:28.402Z,15.85
2023-01-25T17:02:59.620Z,14.60
2023-01-25T17:05:31.975Z,14.35
2023-01-25T17:08:03.604Z,14.70
2023-01-25T17:10:34.620Z,13.85
2023-01-25T17:13:01.402Z,13.57
2023-01-25T17:15:28.332Z,14.70
2023-01-25T17:18:00.456Z,15.20
2023-01-25T17:20:32.694Z,14.20
2023-01-25T17:22:59.462Z,13.50
2023-01-25T17:25:26.244Z,15.30
2023-01-25T17:27:52.904Z,15.25
2023-01-25T17:30:19.710Z,14.75
2023-01-25T17:32:46.484Z,13.93
2023-01-25T17:35:15.279Z,14.32
2023-01-25T17:37:41.942Z,14.98
2023-01-25T17:40:10.362Z,14.02
2023-01-25T17:42:39.801Z,15.43
2023-01-25T17:45:07.305Z,14.93
2023-01-25T17:47:35.470Z,15.07
2023-01-25T17:50:04.715Z,15.60
2023-01-25T17:52:31.411Z,14.67
2023-01-25T17:55:00.653Z,16.83
2023-01-25T17:57:31.989Z,16.03
2023-01-25T17:59:58.752Z,15.60
2023-01-25T18:02:27.840Z,15.23
2023-01-25T18:04:54.710Z,15.07
2023-01-25T18:07:23.541Z,16.20
2023-01-25T18:09:50.203Z,16.90
2023-01-25T18:12:19.002Z,17.65
2023-01-25T18:14:47.005Z,17.10
2023-01-25T18:17:13.902Z,13.40
2023-01-25T18:19:44.149Z,13.73
2023-01-25T18:24:37.890Z,12.40
2023-01-25T18:27:12.789Z,12.20
2023-01-25T18:30:04.687Z,12.15
2023-01-25T18:32:32.880Z,12.35
2023-01-25T18:34:59.737Z,11.77
2023-01-25T18:37:33.335Z,12.20
2023-01-25T18:40:02.178Z,12.05
2023-01-25T18:42:28.838Z,11.82
2023-01-25T18:44:57.957Z,11.90
2023-01-25T18:47:24.744Z,13.43
2023-01-25T18:49:52.882Z,13.20
2023-01-25T18:52:21.686Z,11.70
2023-01-25T18:54:48.674Z,12.05
2023-01-25T18:57:15.967Z,10.65
2023-01-25T18:59:45.151Z,10.55
2023-01-25T19:02:16.260Z,10.82
2023-01-25T19:04:45.755Z,9.88
2023-01-25T19:07:13.169Z,10.20
2023-01-25T19:09:43.485Z,9.93
2023-01-25T19:12:10.686Z,10.32
2023-01-25T19:14:40.062Z,9.85
2023-01-25T19:17:08.267Z,10.50
2023-01-25T19:19:34.965Z,11.55
2023-01-25T19:22:01.641Z,11.27
2023-01-25T19:24:28.521Z,13.02
2023-01-25T19:26:55.372Z,12.85
2023-01-25T19:29:22.148Z,13.38
2023-01-25T19:31:49.151Z,13.38
2023-01-25T19:34:16.018Z,11.75
2023-01-25T19:36:50.073Z,11.85
2023-01-25T19:39:19.827Z,11.80
2023-01-25T19:41:46.859Z,12.70
2023-01-25T19:44:14.676Z,13.40
2023-01-25T19:46:41.603Z,12.32
2023-01-25T19:49:13.116Z,12.43
2023-01-25T19:51:42.572Z,12.35
2023-01-25T19:54:17.894Z,12.68
2023-01-25T19:56:47.312Z,12.60
2023-01-25T19:59:19.738Z,13.15
2023-01-25T20:01:52.141Z,10.65
2023-01-25T20:04:21.517Z,11.77
2023-01-25T20:06:52.353Z,12.07
2023-01-25T20:09:20.106Z,11.52
2023-01-25T20:11:49.318Z,12.20
2023-01-25T20:14:16.116Z,10.98
2023-01-25T20:16:43.105Z,13.20
2023-01-25T20:19:12.160Z,12.05
2023-01-25T20:21:42.019Z,12.60
2023-01-25T20:24:10.628Z,12.05
2023-01-25T20:26:42.766Z,10.40
2023-01-25T20:29:13.881Z,10.85
2023-01-25T20:31:45.518Z,9.93
2023-01-25T20:34:20.664Z,9.88
2023-01-25T20:36:48.378Z,9.88
2023-01-25T20:39:18.048Z,10.55
2023-01-25T20:41:47.586Z,11.18
2023-01-25T20:44:17.999Z,10.02
2023-01-25T20:46:45.014Z,9.82
2023-01-25T20:49:18.572Z,9.77
2023-01-25T20:51:46.112Z,10.98
2023-01-25T20:54:13.013Z,10.05
2023-01-25T20:56:42.893Z,9.68
2023-01-25T20:59:09.819Z,10.02
2023-01-25T21:01:37.366Z,9.65
2023-01-25T21:04:09.427Z,8.73
2023-01-25T21:06:36.238Z,8.68
2023-01-25T21:09:03.937Z,10.20
2023-01-25T21:11:30.985Z,8.88
2023-01-25T21:14:00.084Z,9.63
2023-01-25T21:16:29.093Z,9.82
2023-01-25T21:18:58.045Z,9.55
2023-01-25T21:21:29.648Z,9.82
2023-01-25T21:23:59.807Z,8.27
2023-01-25T21:26:31.960Z,8.40
2023-01-25T21:29:00.506Z,9.40
2023-01-25T21:31:29.980Z,8.85
2023-01-25T21:33:57.167Z,8.45
2023-01-25T21:36:36.195Z,8.50
2023-01-25T21:39:03.172Z,7.47
2023-01-25T21:41:33.359Z,7.13
2023-01-25T21:47:06.028Z,8.15
2023-01-25T21:49:51.634Z,7.78
2023-01-25T21:52:18.309Z,8.50
2023-01-25T21:54:45.030Z,8.40
2023-01-25T21:57:14.401Z,8.82
2023-01-25T21:59:41.140Z,10.27
2023-01-25T22:02:15.718Z,8.63
2023-01-25T22:04:44.592Z,8.50
2023-01-25T22:07:11.795Z,8.95
2023-01-25T22:09:40.804Z,9.48
2023-01-25T22:12:12.820Z,8.40
2023-01-25T22:14:44.262Z,7.72
2023-01-25T22:17:10.966Z,8.48
2023-01-25T22:19:37.644Z,7.93
2023-01-25T22:22:04.323Z,7.53
2023-01-25T22:24:33.412Z,8.65
2023-01-25T22:27:03.173Z,8.15
2023-01-25T22:29:30.014Z,8.20
2023-01-25T22:31:59.290Z,7.95
2023-01-25T22:34:25.951Z,7.57
2023-01-25T22:36:52.637Z,7.63
2023-01-25T22:39:19.301Z,8.95
2023-01-25T22:41:46.071Z,8.43
2023-01-25T22:44:15.008Z,9.48
2023-01-25T22:46:42.014Z,8.82
2023-01-25T22:49:09.008Z,8.18
2023-01-25T22:51:37.976Z,8.98
2023-01-25T22:54:05.227Z,8.40
2023-01-25T22:56:35.847Z,9.32
2023-01-25T22:59:02.682Z,9.60
2023-01-25T23:01:34.428Z,9.48
2023-01-25T23:04:01.860Z,9.07
2023-01-25T23:06:30.971Z,9.25
2023-01-25T23:09:03.373Z,8.95
2023-01-25T23:11:35.614Z,8.88
2023-01-25T23:14:25.593Z,8.20
2023-01-25T23:16:52.879Z,7.85
2023-01-25T23:19:19.659Z,7.68
2023-01-25T23:21:46.396Z,8.13
2023-01-25T23:24:15.468Z,8.40
2023-01-25T23:26:46.521Z,8.50
2023-01-25T23:29:13.472Z,8.70
2023-01-25T23:31:40.221Z,8.18
2023-01-25T23:34:07.447Z,8.68
2023-01-25T23:36:38.524Z,8.88
2023-01-25T23:39:05.924Z,8.40
2023-01-25T23:41:32.799Z,9.68
2023-01-25T23:44:00.789Z,8.65
2023-01-25T23:46:28.316Z,8.50
2023-01-25T23:48:55.240Z,8.98
2023-01-25T23:51:22.128Z,8.57
2023-01-25T23:53:53.388Z,8.93
2023-01-25T23:56:21.597Z,8.45
2023-01-25T23:58:48.903Z,9.13
